createdAt,value
2022-09-24T00:01:17.944Z,100096.06
2022-09-24T00:03:50.004Z,100117.47
2022-09-24T00:06:17.449Z,100124.47
2022-09-24T00:08:43.821Z,100125.19
2022-09-24T00:11:10.754Z,100124.34
2022-09-24T00:13:37.253Z,100140.34
2022-09-24T00:16:12.172Z,100147.16
2022-09-24T00:18:38.915Z,100154.31
2022-09-24T00:21:14.061Z,100152.22
2022-09-24T00:23:41.055Z,100155.66
2022-09-24T00:26:10.610Z,100153.28
2022-09-24T00:28:37.329Z,100147.41
2022-09-24T00:31:06.217Z,100147.41
2022-09-24T00:33:36.094Z,100147.78
2022-09-24T00:36:04.987Z,100152.22
2022-09-24T00:38:32.457Z,100160.19
2022-09-24T00:41:00.156Z,100158.28
2022-09-24T00:43:31.168Z,100170.38
2022-09-24T00:46:13.267Z,100165.00
2022-09-24T00:48:41.142Z,100162.66
2022-09-24T00:51:11.035Z,100161.69
2022-09-24T00:53:37.426Z,100161.50
2022-09-24T00:56:05.600Z,100172.19
2022-09-24T00:58:33.386Z,100172.66
2022-09-24T01:01:07.146Z,100181.56
2022-09-24T01:03:38.086Z,100181.56
2022-09-24T01:06:09.341Z,100190.81
2022-09-24T01:08:36.310Z,100195.38
2022-09-24T01:11:21.587Z,100203.31
2022-09-24T01:14:24.930Z,100196.13
2022-09-24T01:17:02.390Z,100206.72
2022-09-24T01:19:31.886Z,100203.53
2022-09-24T01:22:06.095Z,100209.56
2022-09-24T01:24:44.294Z,100200.88
2022-09-24T01:27:28.613Z,100214.47
2022-09-24T01:30:06.813Z,100217.50
2022-09-24T01:32:41.229Z,100217.31
2022-09-24T01:35:18.642Z,100220.81
2022-09-24T01:37:51.623Z,100219.88
2022-09-24T01:40:20.452Z,100221.88
2022-09-24T01:42:47.358Z,100235.59
2022-09-24T01:45:16.028Z,100231.56
2022-09-24T01:47:43.668Z,100244.03
2022-09-24T01:50:13.347Z,100238.38
2022-09-24T01:52:56.247Z,100254.16
2022-09-24T01:55:30.074Z,100263.16
2022-09-24T01:58:02.042Z,100265.91
2022-09-24T02:00:28.940Z,100262.03
2022-09-24T02:03:09.917Z,100271.84
2022-09-24T02:05:49.877Z,100271.69
2022-09-24T02:08:31.604Z,100277.34
2022-09-24T02:11:06.075Z,100276.03
2022-09-24T02:13:42.317Z,100280.19
2022-09-24T02:16:13.145Z,100277.53
2022-09-24T02:18:42.621Z,100290.94
2022-09-24T02:21:15.654Z,100297.56
2022-09-24T02:23:51.782Z,100300.00
2022-09-24T02:26:18.256Z,100300.00
2022-09-24T02:28:44.945Z,100305.66
2022-09-24T02:31:15.428Z,100299.03
2022-09-24T02:33:50.103Z,100302.91
2022-09-24T02:36:17.455Z,100296.03
2022-09-24T02:38:46.301Z,100300.75
2022-09-24T02:41:15.561Z,100283.06
2022-09-24T02:43:42.042Z,100283.75
2022-09-24T02:46:08.562Z,100285.53
2022-09-24T02:48:35.050Z,100275.81
2022-09-24T02:51:01.580Z,100274.00
2022-09-24T02:53:28.078Z,100275.97
2022-09-24T02:55:54.490Z,100280.69
2022-09-24T02:58:20.981Z,100280.41
2022-09-24T03:00:47.488Z,100289.66
2022-09-24T03:03:18.659Z,100288.88
2022-09-24T03:05:45.126Z,100178.78
2022-09-24T03:08:14.666Z,100169.03
2022-09-24T03:10:41.148Z,100179.81
2022-09-24T03:13:07.590Z,100191.31
2022-09-24T03:15:34.091Z,100194.06
2022-09-24T03:18:00.534Z,99986.38
2022-09-24T03:20:27.006Z,99987.50
2022-09-24T03:22:53.611Z,99991.19
2022-09-24T03:25:21.719Z,100000.31
2022-09-24T03:27:50.935Z,99993.19
2022-09-24T03:30:17.659Z,100000.31
2022-09-24T03:32:44.215Z,99994.19
2022-09-24T03:35:10.771Z,99999.97
2022-09-24T03:37:40.685Z,99988.84
2022-09-24T03:40:10.162Z,99979.97
2022-09-24T03:42:36.612Z,99944.81
2022-09-24T03:45:04.147Z,99918.59
2022-09-24T03:47:30.585Z,99850.94
2022-09-24T03:49:57.528Z,99855.75
2022-09-24T03:52:24.407Z,99875.19
2022-09-24T03:54:50.830Z,99868.03
2022-09-24T03:57:17.442Z,99874.91
2022-09-24T03:59:44.593Z,99875.00
2022-09-24T04:02:12.081Z,99876.69
2022-09-24T04:04:39.016Z,99878.19
2022-09-24T04:07:05.949Z,99890.84
2022-09-24T04:09:32.436Z,99912.19
2022-09-24T04:11:58.819Z,99919.56
2022-09-24T04:14:27.680Z,99926.75
2022-09-24T04:16:54.096Z,99950.72
2022-09-24T04:19:20.481Z,99966.56
2022-09-24T04:21:48.939Z,99962.44
2022-09-24T04:24:22.632Z,99974.50
2022-09-24T04:26:49.065Z,99984.88
2022-09-24T04:29:15.563Z,99992.06
2022-09-24T04:31:42.145Z,100010.53
2022-09-24T04:34:09.933Z,100017.88
2022-09-24T04:36:36.315Z,100027.09
2022-09-24T04:39:02.749Z,100037.19
2022-09-24T04:41:29.503Z,100054.91
2022-09-24T04:43:57.416Z,100080.06
2022-09-24T04:46:23.983Z,100085.41
2022-09-24T04:48:50.448Z,100107.72
2022-09-24T04:51:17.114Z,100110.22
2022-09-24T04:53:43.572Z,100133.53
2022-09-24T04:56:10.019Z,100138.19
2022-09-24T04:58:38.449Z,100115.53
2022-09-24T05:01:07.167Z,100127.06
2022-09-24T05:03:33.785Z,100126.09
2022-09-24T05:06:00.425Z,100136.81
2022-09-24T05:08:26.875Z,100146.59
2022-09-24T05:10:53.488Z,100146.59
2022-09-24T05:13:25.197Z,100145.06
2022-09-24T05:15:51.666Z,100152.06
2022-09-24T05:18:18.107Z,100157.41
2022-09-24T05:20:44.563Z,100157.34
2022-09-24T05:23:12.221Z,100154.88
2022-09-24T05:25:38.614Z,100161.69
2022-09-24T05:28:08.024Z,100124.56
2022-09-24T05:30:34.525Z,100127.97
2022-09-24T05:33:01.066Z,100128.84
2022-09-24T05:35:27.534Z,100135.97
2022-09-24T05:37:54.124Z,100133.25
2022-09-24T05:40:21.202Z,100138.53
2022-09-24T05:42:47.723Z,100157.59
2022-09-24T05:45:14.271Z,100189.13
2022-09-24T05:47:40.754Z,100215.34
2022-09-24T05:50:07.853Z,100168.44
2022-09-24T05:52:34.319Z,100152.19
2022-09-24T05:55:05.381Z,100151.13
2022-09-24T05:57:33.864Z,100240.03
2022-09-24T06:00:01.370Z,100290.13
2022-09-24T06:02:27.897Z,100334.63
2022-09-24T06:04:54.497Z,100373.19
2022-09-24T06:07:21.237Z,100380.25
2022-09-24T06:09:47.664Z,100377.53
2022-09-24T06:12:14.299Z,100373.78
2022-09-24T06:14:40.957Z,100215.00
2022-09-24T06:17:08.848Z,100214.63
2022-09-24T06:19:35.545Z,100204.78
2022-09-24T06:22:02.121Z,100140.84
2022-09-24T06:24:28.640Z,100129.63
2022-09-24T06:26:55.175Z,100140.50
2022-09-24T06:29:21.598Z,100123.25
2022-09-24T06:31:48.086Z,100124.47
2022-09-24T06:34:14.559Z,100124.28
2022-09-24T06:36:40.967Z,100164.63
2022-09-24T06:39:08.033Z,100168.78
2022-09-24T06:41:34.515Z,100172.47
2022-09-24T06:44:01.148Z,100187.09
2022-09-24T06:46:27.607Z,100189.72
2022-09-24T06:48:54.155Z,100199.00
2022-09-24T06:51:21.012Z,100199.13
2022-09-24T06:53:51.621Z,100206.56
2022-09-24T06:56:18.027Z,100219.38
2022-09-24T06:58:44.410Z,100217.78
2022-09-24T07:01:10.976Z,100229.34
2022-09-24T07:03:37.401Z,100244.16
2022-09-24T07:06:05.797Z,100254.47
2022-09-24T07:08:32.681Z,100267.31
2022-09-24T07:10:59.200Z,100272.25
2022-09-24T07:13:25.562Z,100295.50
2022-09-24T07:15:52.202Z,100311.09
2022-09-24T07:18:20.187Z,100320.06
2022-09-24T07:20:54.170Z,100334.28
2022-09-24T07:23:21.022Z,100361.69
2022-09-24T07:25:48.074Z,100366.81
2022-09-24T07:28:15.059Z,100381.97
2022-09-24T07:30:41.749Z,100399.84
2022-09-24T07:33:08.788Z,100435.13
2022-09-24T07:35:38.392Z,100464.22
2022-09-24T07:38:07.519Z,100447.75
2022-09-24T07:40:34.568Z,100420.88
2022-09-24T07:43:01.185Z,100401.19
2022-09-24T07:45:28.819Z,100387.25
2022-09-24T07:47:59.259Z,100346.97
2022-09-24T07:50:26.424Z,100298.44
2022-09-24T07:52:53.198Z,100246.31
2022-09-24T07:55:19.668Z,100203.81
2022-09-24T07:57:50.797Z,100314.03
2022-09-24T08:00:18.729Z,100311.06
2022-09-24T08:02:47.419Z,100307.47
2022-09-24T08:05:15.975Z,100301.22
2022-09-24T08:07:42.863Z,100294.50
2022-09-24T08:10:09.575Z,100303.28
2022-09-24T08:12:37.100Z,100286.25
2022-09-24T08:15:03.781Z,100277.13
2022-09-24T08:17:31.229Z,100267.69
2022-09-24T08:19:59.052Z,100236.34
2022-09-24T08:22:25.657Z,100250.06
2022-09-24T08:24:53.937Z,100226.50
2022-09-24T08:27:20.506Z,100217.66
2022-09-24T08:29:47.029Z,100184.47
2022-09-24T08:32:17.321Z,100152.75
2022-09-24T08:34:47.195Z,100105.44
2022-09-24T08:37:16.398Z,100081.19
2022-09-24T08:39:42.934Z,100026.34
2022-09-24T08:42:25.563Z,99983.91
2022-09-24T08:44:56.515Z,99965.09
2022-09-24T08:47:56.140Z,99964.59
2022-09-24T08:50:44.369Z,99943.81
2022-09-24T08:53:28.550Z,99916.72
2022-09-24T08:55:59.460Z,99929.03
2022-09-24T08:58:49.617Z,99924.47
2022-09-24T09:01:24.183Z,100097.03
2022-09-24T09:04:09.119Z,100153.06
2022-09-24T09:06:52.269Z,100167.81
2022-09-24T09:09:28.814Z,100168.47
2022-09-24T09:12:02.877Z,100198.97
2022-09-24T09:14:54.445Z,100210.22
2022-09-24T09:17:31.882Z,100302.50
2022-09-24T09:20:01.623Z,100367.84
2022-09-24T09:22:38.224Z,100394.31
2022-09-24T09:25:26.063Z,100472.88
2022-09-24T09:28:01.092Z,100542.41
2022-09-24T09:30:34.373Z,100628.25
2022-09-24T09:33:27.287Z,100695.19
2022-09-24T09:36:17.689Z,100721.84
2022-09-24T09:39:08.998Z,100736.88
2022-09-24T09:41:45.525Z,100748.97
2022-09-24T09:44:15.875Z,100759.16
2022-09-24T09:46:56.896Z,100785.97
2022-09-24T09:49:26.989Z,100788.84
2022-09-24T09:51:57.980Z,100795.75
2022-09-24T09:54:36.461Z,100801.72
2022-09-24T09:57:04.033Z,100798.63
2022-09-24T09:59:31.175Z,100817.72
2022-09-24T10:01:57.791Z,100835.97
2022-09-24T10:04:39.208Z,100836.78
2022-09-24T10:07:09.318Z,100839.94
2022-09-24T10:09:36.919Z,100842.13
2022-09-24T10:12:15.424Z,100846.13
2022-09-24T10:14:44.791Z,100855.50
2022-09-24T10:17:16.537Z,100852.28
2022-09-24T10:19:44.189Z,100846.53
2022-09-24T10:22:23.351Z,100858.25
2022-09-24T10:24:51.399Z,100870.19
2022-09-24T10:27:29.324Z,100874.81
2022-09-24T10:29:56.541Z,100880.88
2022-09-24T10:32:26.564Z,100883.44
2022-09-24T10:34:57.817Z,100902.41
2022-09-24T10:37:24.459Z,100892.22
2022-09-24T10:40:20.305Z,100860.16
2022-09-24T10:42:55.657Z,100858.88
2022-09-24T10:45:27.912Z,100877.78
2022-09-24T10:48:06.264Z,100884.72
2022-09-24T10:50:45.483Z,100945.69
2022-09-24T10:53:40.214Z,100939.88
2022-09-24T10:56:45.244Z,101368.41
2022-09-24T10:59:21.275Z,101605.69
2022-09-24T11:01:47.700Z,101645.88
2022-09-24T11:04:39.161Z,101664.28
2022-09-24T11:07:14.566Z,101615.69
2022-09-24T11:09:53.842Z,101627.91
2022-09-24T11:12:27.698Z,101581.00
2022-09-24T11:15:06.097Z,101550.53
2022-09-24T11:17:45.125Z,101500.00
2022-09-24T11:20:14.614Z,101543.06
2022-09-24T11:22:59.494Z,101693.34
2022-09-24T11:25:38.124Z,101746.25
2022-09-24T11:28:04.600Z,101754.69
2022-09-24T11:30:49.874Z,101764.47
2022-09-24T11:33:23.130Z,101767.59
2022-09-24T11:36:01.336Z,101771.06
2022-09-24T11:38:45.068Z,101765.56
2022-09-24T11:41:59.744Z,101771.00
2022-09-24T11:44:57.132Z,101761.91
2022-09-24T11:47:42.292Z,101770.69
2022-09-24T11:50:33.379Z,101763.44
2022-09-24T11:53:12.243Z,101763.94
2022-09-24T11:55:59.078Z,101762.09
2022-09-24T11:58:31.677Z,101766.13
2022-09-24T12:01:15.531Z,101768.94
2022-09-24T12:04:00.267Z,101765.53
2022-09-24T12:06:38.264Z,101772.31
2022-09-24T12:09:31.746Z,101775.38
2022-09-24T12:12:11.497Z,101776.25
2022-09-24T12:14:53.013Z,101790.47
2022-09-24T12:17:44.152Z,101780.38
2022-09-24T12:20:46.095Z,101780.88
2022-09-24T12:23:15.960Z,101793.44
2022-09-24T12:25:45.168Z,101788.06
2022-09-24T12:28:17.195Z,101776.53
2022-09-24T12:30:55.715Z,101761.97
2022-09-24T12:33:40.874Z,101757.94
2022-09-24T12:36:32.690Z,101765.34
2022-09-24T12:39:09.376Z,101778.00
2022-09-24T12:41:40.126Z,101768.91
2022-09-24T12:44:12.454Z,101769.34
2022-09-24T12:46:59.693Z,101776.06
2022-09-24T12:49:26.206Z,101785.34
2022-09-24T12:52:17.431Z,101770.16
2022-09-24T12:54:45.826Z,101776.84
2022-09-24T12:57:20.082Z,101773.13
2022-09-24T12:59:58.156Z,101774.78
2022-09-24T13:02:26.113Z,101766.72
2022-09-24T13:05:01.930Z,101773.38
2022-09-24T13:07:41.756Z,101760.75
2022-09-24T13:10:12.569Z,101777.75
2022-09-24T13:12:39.069Z,101761.31
2022-09-24T13:15:28.206Z,101760.84
2022-09-24T13:18:03.032Z,101766.63
2022-09-24T13:20:30.551Z,101760.75
2022-09-24T13:23:13.728Z,101753.50
2022-09-24T13:25:40.582Z,101758.59
2022-09-24T13:28:22.502Z,101757.09
2022-09-24T13:30:59.627Z,101736.19
2022-09-24T13:33:30.361Z,101740.81
2022-09-24T13:36:11.735Z,101742.88
2022-09-24T13:39:01.004Z,101736.66
2022-09-24T13:41:45.996Z,101750.94
2022-09-24T13:44:33.759Z,101739.44
2022-09-24T13:47:11.614Z,101751.38
2022-09-24T13:49:42.751Z,101752.59
2022-09-24T13:52:18.204Z,101758.28
2022-09-24T13:54:51.377Z,101764.91
2022-09-24T13:57:24.488Z,101769.16
2022-09-24T14:00:04.058Z,101767.59
2022-09-24T14:02:37.322Z,101775.66
2022-09-24T14:05:07.244Z,101770.00
2022-09-24T14:07:36.447Z,101722.66
2022-09-24T14:10:20.951Z,101697.38
2022-09-24T14:12:47.330Z,101693.25
2022-09-24T14:15:17.522Z,101706.13
2022-09-24T14:17:55.905Z,101721.09
2022-09-24T14:20:22.628Z,101724.88
2022-09-24T14:22:49.545Z,101734.78
2022-09-24T14:25:20.712Z,101725.13
2022-09-24T14:27:51.504Z,101729.31
2022-09-24T14:30:30.151Z,101736.75
2022-09-24T14:32:58.859Z,101723.84
2022-09-24T14:35:30.043Z,101723.25
2022-09-24T14:38:04.913Z,101732.13
2022-09-24T14:40:40.266Z,101733.47
2022-09-24T14:43:16.243Z,101744.31
2022-09-24T14:45:42.752Z,101736.25
2022-09-24T14:48:32.974Z,101736.53
2022-09-24T14:51:00.003Z,101733.81
2022-09-24T14:53:44.473Z,101722.91
2022-09-24T14:56:26.119Z,101720.88
2022-09-24T14:58:52.638Z,101737.78
2022-09-24T15:01:23.100Z,101733.31
2022-09-24T15:03:53.208Z,101734.31
2022-09-24T15:06:34.898Z,101735.19
2022-09-24T15:09:26.124Z,101744.81
2022-09-24T15:11:52.861Z,101731.13
2022-09-24T15:14:20.381Z,101741.19
2022-09-24T15:16:47.304Z,101741.59
2022-09-24T15:19:20.918Z,101741.84
2022-09-24T15:22:00.284Z,101737.41
2022-09-24T15:24:26.693Z,101735.03
2022-09-24T15:27:02.452Z,101737.94
2022-09-24T15:29:28.889Z,101752.47
2022-09-24T15:31:57.313Z,101764.09
2022-09-24T15:34:23.939Z,101781.56
2022-09-24T15:36:55.504Z,101793.38
2022-09-24T15:39:22.242Z,101801.63
2022-09-24T15:41:48.745Z,101797.81
2022-09-24T15:44:21.476Z,101787.53
2022-09-24T15:46:48.057Z,101780.09
2022-09-24T15:49:14.690Z,101781.75
2022-09-24T15:51:41.042Z,101787.22
2022-09-24T15:54:08.895Z,101786.78
2022-09-24T15:56:35.287Z,101765.38
2022-09-24T15:59:01.702Z,101741.22
2022-09-24T16:01:28.259Z,101748.13
2022-09-24T16:03:54.699Z,101757.81
2022-09-24T16:06:21.032Z,101774.38
2022-09-24T16:08:47.388Z,101779.88
2022-09-24T16:11:13.762Z,101795.38
2022-09-24T16:13:40.297Z,101790.25
2022-09-24T16:16:07.501Z,101787.72
2022-09-24T16:18:34.059Z,101776.75
2022-09-24T16:21:04.306Z,101767.22
2022-09-24T16:23:30.677Z,101760.44
2022-09-24T16:25:59.044Z,101742.88
2022-09-24T16:28:27.068Z,101735.34
2022-09-24T16:30:54.045Z,101729.66
2022-09-24T16:33:21.597Z,101723.50
2022-09-24T16:35:48.370Z,101719.22
2022-09-24T16:38:18.880Z,101715.81
2022-09-24T16:40:48.402Z,101724.34
2022-09-24T16:43:15.913Z,101722.06
2022-09-24T16:45:42.300Z,101719.41
2022-09-24T16:48:11.391Z,101724.69
2022-09-24T16:50:37.761Z,101725.16
2022-09-24T16:53:04.176Z,101716.78
2022-09-24T16:55:30.674Z,101728.09
2022-09-24T16:57:57.255Z,101728.41
2022-09-24T17:00:23.639Z,101724.63
2022-09-24T17:02:50.259Z,101695.44
2022-09-24T17:05:17.147Z,101662.66
2022-09-24T17:07:43.651Z,101573.59
2022-09-24T17:10:11.305Z,101500.81
2022-09-24T17:12:37.789Z,101424.88
2022-09-24T17:15:04.636Z,101278.06
